Saturday, November 17, 2018, 10:54 AM EST
Back to Local

KOXB, Ocean City Municipal Airport

Location: Berlin, MD, United States Lat: 38.317
Local Time: 10:54 AM EST (15:54 GMT) Lon: -75.117
Time Zone: US/Eastern Elev: 13 ft

Show me the last for .
Show Coded

Time T Td Feel RH Dir Speed Gust Alt SLP Vis Weather Sky Remarks
2018-11-17 09:53 47 32 44 55 320° 7 - 30.28 30.27 10 CLR None
2018-11-17 08:53 44 34 40 67 320° 8 - 30.28 30.28 10 CLR None
2018-11-17 07:53 38 35 - 89 - Calm - 30.27 30.27 10 CLR None
2018-11-17 06:53 33 31 - 91 - Calm - 30.23 30.23 6 BR CLR 6-hr Min Temp (7am): 32.0°F
6-hr Max Temp (7am): 41.0°F
2018-11-17 05:53 34 32 - 92 - Calm - 30.20 30.20 10 CLR None
2018-11-17 04:53 37 31 34 78 310° 3 - 30.17 30.17 10 CLR None
2018-11-17 03:53 38 32 34 78 330° 5 - 30.15 30.14 10 CLR None
2018-11-17 02:53 39 32 36 75 320° 5 - 30.13 30.13 10 CLR None
2018-11-17 01:53 41 33 36 73 330° 8 - 30.12 30.12 10 CLR None
2018-11-17 00:53 40 33 34 76 330° 8 - 30.10 30.10 10 CLR 6-hr Min Temp (1am): 36.0°F
6-hr Max Temp (1am): 43.0°F
2018-11-16 23:53 40 34 37 79 280° 5 - 30.09 30.09 10 CLR 24-hr Min Temp (12am): 36.0°F
24-hr Max Temp (12am): 55.9°F
2018-11-16 22:53 39 34 35 81 310° 6 - 30.08 30.08 10 FEW050 None
2018-11-16 21:53 38 36 34 92 270° 5 - 30.06 30.06 10 CLR None
2018-11-16 20:53 37 35 34 92 310° 3 - 30.03 30.03 10 CLR None
2018-11-16 19:53 39 37 36 92 330° 5 - 30.01 30.01 10 CLR None
2018-11-16 18:53 43 38 41 82 260° 3 - 29.98 29.98 10 CLR 6-hr Min Temp (7pm): 42.1°F
6-hr Max Temp (7pm): 52.0°F
2018-11-16 17:53 43 38 41 82 250° 3 - 29.96 29.96 10 CLR None
2018-11-16 16:53 48 36 45 62 260° 7 - 29.93 29.92 10 CLR None
2018-11-16 15:53 50 36 46 58 290° 10 - 29.90 29.90 10 CLR None
2018-11-16 14:53 51 36 - 56 280° 9 18 29.88 29.88 10 CLR None
2018-11-16 13:53 51 36 - 56 270° 10 - 29.87 29.87 10 CLR None
2018-11-16 12:53 50 37 43 60 310° 13 21 29.88 29.87 10 FEW031 6-hr Min Temp (1pm): 39.9°F
6-hr Max Temp (1pm): 51.1°F
2018-11-16 11:53 48 36 40 62 280° 14 23 29.88 29.88 10 BKN033 None

Support USWX by starting your Amazon purchase here.